Burt, North Dakota
Current Conditions -  °F | °C
As of 9:53 PM on Thursday 30 Oct 2014 (Local Time) from KHEI Reporting Station
Overcast Overcast  
Wind Chill: 22°   Ceiling: 700
Heat Index: 31°   Visibility: 8mi
Dew Point: 27°   Wind: 12mph
Humidity: 85%   Direction: 80°E
Pressure: 30.5"   Gusts: NA
Location:  46.4214°N, 102.296°W
Report Text: KHEI 310353Z AUTO 08010KT 8SM OVC007 M01/M03 A3050 RMK AO2 SLP356 T10061028
Loading
Personal Weather Stations






























Interactive Weather Map
Tropical Storm Tracking
New forecast layout! Learn more

10-Day Weather Forecast

Advertisements
Track Severe Weather on mobile